Wednesday, November 22, 2017, 3:58 AM EST
Back to Local

KMMU, Morristown Municipal

Location: Morristown, NJ, United States Lat: 40.8
Local Time: 3:58 AM EST ( 8:58 GMT) Lon: -74.417
Time Zone: US/Eastern Elev: 187 ft

Show me the last for .
Show Decoded

2017-11-22 03:35 METAR KMMU 220835Z AUTO 00000KT 10SM CLR 01/01 A2996 RMK AO2 =
2017-11-22 03:15 METAR KMMU 220815Z AUTO 00000KT 10SM SCT075 SCT085 01/01 A2997 RMK AO2 =
2017-11-22 02:55 METAR KMMU 220755Z AUTO 00000KT 10SM SCT075 02/01 A2997 RMK AO2 =
2017-11-22 02:35 METAR KMMU 220735Z AUTO 00000KT 10SM CLR 01/01 A2998 RMK AO2 =
2017-11-22 02:15 METAR KMMU 220715Z AUTO 00000KT 10SM CLR 01/00 A2998 RMK AO2 =
2017-11-22 02:00 METAR KMMU 220700Z AUTO 00000KT 10SM CLR 01/00 A2998 RMK AO2 =
2017-11-22 01:35 METAR KMMU 220635Z AUTO 00000KT 10SM CLR 01/00 A3000 RMK AO2 =
2017-11-22 01:15 METAR KMMU 220615Z AUTO 00000KT 10SM CLR 00/00 A3000 RMK AO2 =
2017-11-22 00:55 METAR KMMU 220555Z AUTO 00000KT 10SM CLR 01/00 A3000 RMK AO2 =
2017-11-22 00:35 METAR KMMU 220535Z AUTO 00000KT 10SM CLR 00/00 A3001 RMK AO2 =
2017-11-22 00:15 METAR KMMU 220515Z AUTO 00000KT 10SM CLR 00/M00 A3002 RMK AO2 =
2017-11-21 23:55 METAR KMMU 220455Z AUTO 00000KT 10SM CLR 00/M00 A3002 RMK AO2 =
2017-11-21 23:35 METAR KMMU 220435Z AUTO 00000KT 10SM CLR M00/M01 A3003 RMK AO2 =
2017-11-21 23:15 METAR KMMU 220415Z AUTO 00000KT 10SM CLR 00/M01 A3003 RMK AO2 =
2017-11-21 22:55 METAR KMMU 220355Z AUTO 00000KT 10SM CLR 00/M01 A3004 RMK AO2 =
2017-11-21 22:35 METAR KMMU 220335Z AUTO 00000KT 10SM CLR 00/M01 A3004 RMK AO2 =
2017-11-21 22:15 METAR KMMU 220315Z AUTO 00000KT 10SM CLR M01/M02 A3004 RMK AO2 =
2017-11-21 21:55 METAR KMMU 220255Z AUTO 00000KT 10SM CLR 00/M01 A3005 RMK AO2 =
2017-11-21 21:45 METAR KMMU 220245Z 00000KT 10SM SCT250 01/M01 A3005 =
2017-11-21 21:35 METAR KMMU 220235Z AUTO 00000KT 10SM CLR M00/M01 A3005 RMK AO2 =
2017-11-21 20:45 METAR KMMU 220145Z 00000KT 10SM SCT250 01/M01 A3004 =
2017-11-21 19:45 METAR KMMU 220045Z 00000KT 10SM SCT250 01/M01 A3005 =
2017-11-21 18:45 METAR KMMU 212345Z 00000KT 10SM SCT250 03/M01 A3004 =
2017-11-21 17:45 METAR KMMU 212245Z 00000KT 10SM SCT250 07/M01 A3002 =
2017-11-21 16:45 METAR KMMU 212145Z 21005KT 10SM SCT250 11/M02 A3001 =
2017-11-21 15:45 METAR KMMU 212045Z 23011G17KT 10SM BKN250 13/M02 A3001 =
2017-11-21 14:45 METAR KMMU 211945Z 21009G16KT 15SM SCT250 14/M02 A3001 =
2017-11-21 13:45 METAR KMMU 211845Z 21010G14KT 15SM SCT120 14/M02 A3003 =
2017-11-21 12:45 METAR KMMU 211745Z 25005G13KT 15SM SCT120 13/00 A3005 =
2017-11-21 11:45 METAR KMMU 211645Z 23011G18KT 15SM SCT120 11/00 A3008 =
2017-11-21 10:45 METAR KMMU 211545Z 22008KT 15SM SCT120 10/00 A3011 =
2017-11-21 09:45 METAR KMMU 211445Z 22008KT 15SM SCT120 08/00 A3012 =
2017-11-21 08:45 METAR KMMU 211345Z 22008KT 15SM SCT120 05/01 A3012 =
2017-11-21 07:45 METAR KMMU 211245Z 00000KT 15SM SCT120 M01/M03 A3013 =
2017-11-21 06:46 METAR KMMU 211146Z 00000KT 10SM SCT250 M03/M04 A3012 =
2017-11-21 06:45 METAR KMMU 211145Z 00000KT 10SM SCT250 M03/M04 A3012 =
2017-11-21 05:35 METAR KMMU 211035Z AUTO 00000KT 10SM CLR M02/M04 A3013 RMK AO2 =
2017-11-21 05:15 METAR KMMU 211015Z AUTO 00000KT 10SM CLR M01/M04 A3012 RMK AO2 =
2017-11-21 04:55 METAR KMMU 210955Z AUTO 00000KT 10SM CLR 01/M03 A3011 RMK AO2 =
2017-11-21 04:35 METAR KMMU 210935Z AUTO 00000KT 10SM CLR 01/M03 A3011 RMK AO2 =
2017-11-21 04:15 METAR KMMU 210915Z AUTO 18004KT 10SM CLR 00/M03 A3011 RMK AO2 =

Support USWX by starting your Amazon purchase here.